Honolulu, HI (96816)

11:22 PM HST on February 11, 2016 (GMT -1000)
Kaimuki - Lower SIerra Drive | | Change Station
CLOSE
Current Station
Personal Weather Station
Location: Honolulu, HI
Elevation: 217 ft
Nearby Weather Stations

Elev 217 ft 21.29 °N, 157.80 °W | Updated 13 seconds ago

Mostly Cloudy
Mostly Cloudy
72.9 °F
Feels Like 74 °F
N
7.9
Wind Variable Wind from NE
Gusts 12.0 mph

Today
High -- | Low -- °F
--% Chance of Precip.
Yesterday
High -- | Low -- °F
Precip. -- in
Pressure 30.05 in
Visibility 10.0 miles
Clouds Few 2500 ft
Scattered Clouds 3700 ft
Mostly Cloudy 4600 ft
Heat Index 74 °F
Dew Point 65 °F
Humidity 75%
Rainfall in
Snow Depth Not available.
7:04 AM 6:27 PM
Waxing Crescent, 19% visible
METAR PHNL 120853Z 06007KT 10SM FEW025 SCT037 BKN046 24/18 A3005 RMK AO2 SLP174 T02390178 51002
Pressure 30.05 in
Visibility 10.0 miles
Clouds Few 2500 ft
Scattered Clouds 3700 ft
Mostly Cloudy 4600 ft
Heat Index 74 °F
Dew Point 65 °F
Humidity 75%
Rainfall in
Snow Depth Not available.
7:04 AM 6:27 PM
Waxing Crescent, 19% visible
METAR PHNL 120853Z 06007KT 10SM FEW025 SCT037 BKN046 24/18 A3005 RMK AO2 SLP174 T02390178 51002

10-Day Weather Forecast

Almanac

Astronomy

Feb. 11, 2016 Rise Set
Actual Time
Civil Twilight
Nautical Twilight
Astronomical Twilight
Moon
Length of Visible Light
Length of Day
Tomorrow will be .
, % of the Moon is Illuminated

Today's Extremes

State Highs State Lows

Community

WunderPhotos

Upload Photos

1,892,286 photos uploaded!

WunderBlog® & News

Nearby

Air Quality

  Air Quality AQ Index Pollutant
Not available.

Snow Depth

Station Depth Elevation

Earthquake Activity

City Distance Mag. Time & Date
Minimum magnitude displayed is 2.5.

Coastal Water Temperatures

Place Temperature

Stations

Nearby Weather Stations

Station Location Temp. Windchill Dew Point Humidity Wind Precip. Elev Updated Type
                   

Watches & Warnings

There are currently no watches in effect.